Lakeville, Minnesota
Current Conditions -  °F | °C
As of 4:28 AM on Sunday 26 Oct 2014 (Local Time) from KLVN Reporting Station
Clear Clear  
Wind Chill: 28°   Ceiling: Unl
Heat Index: 28°   Visibility: 10mi
Dew Point: 28°   Wind: 0mph
Humidity: 100%   Direction: NA
Pressure: 30.01"   Gusts: NA
Location:  44.66°N, 93.24°W
Report Text: KLVN 260928Z AUTO 00000KT 10SM CLR M02/M02 A3001 RMK AO2
Loading
Personal Weather Stations






























Interactive Weather Map
Tropical Storm Tracking
New forecast layout! Learn more

10-Day Weather Forecast

Advertisements
Track Severe Weather on mobile